LFLY/LYN METAR and TAF weather

Enter ICAO airport designator
Station Type Date Time Source
LFLY METAR 2019/02/16 18:00 UTC NOAA

LFLY 161800Z AUTO 20003KT 160V230 CAVOK 14/M04 Q102


Station Type Date Time Source
LFLY Decoded METAR 2019/02/16 18:00 UTC NOAA

Lyon / Bron, France (LFLY) 45-43N 004-57E 201M
Feb 16, 2019 - 01:00 PM EST / 2019.02.16 1800 UTC
Wind: from the SSW (200 degrees) at 3 MPH (3 KT) (direction variable):0
Visibility: greater than 7 mile(s):0
Temperature: 57 F (14 C)
Dew Point: 24 F (-4 C)
Relative Humidity: 28%
Pressure (altimeter): 30.30 in. Hg (1026 hPa)
ob: LFLY 161800Z AUTO 2000

Station Type Date Time Source
LFLY TAF 2019/02/16 18:22 UTC NOAA

TAF LFLY 161700Z 1618/1718 15005KT CAVOK
TEMPO 1708/1718 18015KT


Example: see airport list